createdAt,value
2018-10-05T00:00:11.647Z,44.00
2018-10-05T00:02:39.939Z,46.50
2018-10-05T00:05:08.231Z,41.00
2018-10-05T00:07:36.532Z,42.33
2018-10-05T00:10:04.827Z,37.40
2018-10-05T00:12:33.139Z,55.30
2018-10-05T00:15:01.418Z,49.63
2018-10-05T00:17:29.715Z,33.93
2018-10-05T00:19:58.022Z,45.20
2018-10-05T00:22:26.311Z,43.17
2018-10-05T00:24:54.608Z,30.90
2018-10-05T00:27:22.891Z,30.20
2018-10-05T00:29:51.199Z,29.60
2018-10-05T00:32:19.569Z,25.87
2018-10-05T00:34:47.799Z,27.47
2018-10-05T00:37:16.093Z,29.80
2018-10-05T00:39:44.413Z,26.43
2018-10-05T00:42:12.690Z,35.40
2018-10-05T00:44:40.986Z,38.00
2018-10-05T00:47:09.295Z,40.77
2018-10-05T00:49:37.579Z,33.73
2018-10-05T00:52:05.866Z,45.07
2018-10-05T00:54:34.164Z,33.27
2018-10-05T00:57:02.442Z,39.27
2018-10-05T00:59:30.771Z,36.07
2018-10-05T01:01:59.055Z,32.27
2018-10-05T01:04:27.343Z,40.90
2018-10-05T01:06:55.639Z,43.60
2018-10-05T01:09:23.927Z,34.23
2018-10-05T01:11:52.243Z,35.60
2018-10-05T01:14:20.534Z,39.60
2018-10-05T01:16:48.816Z,36.10
2018-10-05T01:19:17.113Z,32.87
2018-10-05T01:21:45.395Z,35.03
2018-10-05T01:24:13.695Z,44.17
2018-10-05T01:26:42.015Z,37.27
2018-10-05T01:29:10.295Z,40.27
2018-10-05T01:31:38.583Z,60.07
2018-10-05T01:34:06.879Z,39.97
2018-10-05T01:36:35.167Z,43.53
2018-10-05T01:39:03.463Z,62.53
2018-10-05T01:41:31.750Z,46.63
2018-10-05T01:44:00.044Z,36.20
2018-10-05T01:46:28.338Z,39.80
2018-10-05T01:48:56.639Z,39.60
2018-10-05T01:51:24.923Z,46.27
2018-10-05T01:53:53.208Z,54.40
2018-10-05T01:56:21.503Z,45.10
2018-10-05T01:58:49.791Z,46.53
2018-10-05T02:01:18.095Z,49.30
2018-10-05T02:03:46.376Z,45.17
2018-10-05T02:06:14.671Z,42.73
2018-10-05T02:08:42.955Z,61.20
2018-10-05T02:11:11.250Z,77.60
2018-10-05T02:13:39.539Z,52.53
2018-10-05T02:16:07.830Z,40.73
2018-10-05T02:18:36.123Z,55.23
2018-10-05T02:21:04.412Z,41.77
2018-10-05T02:23:32.707Z,39.33
2018-10-05T02:26:00.986Z,56.47
2018-10-05T02:28:29.291Z,37.83
2018-10-05T02:30:57.574Z,41.53
2018-10-05T02:33:25.864Z,38.10
2018-10-05T02:35:54.163Z,50.60
2018-10-05T02:38:22.444Z,49.50
2018-10-05T02:40:50.755Z,42.30
2018-10-05T02:43:19.043Z,40.67
2018-10-05T02:45:47.342Z,48.03
2018-10-05T02:48:15.631Z,42.13
2018-10-05T02:50:43.927Z,54.17
2018-10-05T02:53:12.219Z,49.37
2018-10-05T02:55:40.510Z,44.17
2018-10-05T02:58:08.802Z,47.93
2018-10-05T03:03:40.491Z,49.30
2018-10-05T03:06:08.815Z,39.10
2018-10-05T03:08:37.117Z,43.00
2018-10-05T03:11:05.437Z,35.03
2018-10-05T03:13:33.756Z,44.70
2018-10-05T03:16:02.081Z,38.97
2018-10-05T03:18:30.409Z,43.00
2018-10-05T03:20:58.725Z,45.33
2018-10-05T03:23:27.040Z,51.37
2018-10-05T03:25:55.355Z,43.70
2018-10-05T03:28:23.668Z,51.90
2018-10-05T03:36:09.412Z,42.93
2018-10-05T03:38:37.728Z,41.37
2018-10-05T03:41:06.048Z,37.63
2018-10-05T03:43:34.360Z,37.13
2018-10-05T03:46:02.681Z,50.63
2018-10-05T03:48:31.005Z,46.53
2018-10-05T03:50:59.313Z,40.87
2018-10-05T03:53:27.623Z,40.90
2018-10-05T03:55:55.952Z,43.92
2018-10-05T03:58:24.263Z,52.63
2018-10-05T04:00:52.596Z,47.40
2018-10-05T04:03:21.897Z,55.50
2018-10-05T04:05:50.212Z,47.50
2018-10-05T04:08:18.529Z,43.60
2018-10-05T04:10:46.829Z,40.20
2018-10-05T04:13:15.152Z,45.47
2018-10-05T04:15:43.484Z,42.57
2018-10-05T04:18:11.804Z,53.50
2018-10-05T04:20:40.120Z,46.28
2018-10-05T04:23:08.407Z,42.30
2018-10-05T04:25:36.719Z,44.40
2018-10-05T04:28:05.007Z,40.70
2018-10-05T04:30:33.327Z,48.90
2018-10-05T04:33:01.632Z,48.13
2018-10-05T04:35:30.174Z,47.10
2018-10-05T04:37:58.466Z,38.48
2018-10-05T04:40:26.758Z,37.37
2018-10-05T04:42:55.074Z,43.03
2018-10-05T04:45:23.367Z,43.53
2018-10-05T04:47:51.691Z,47.35
2018-10-05T04:50:19.983Z,45.57
2018-10-05T04:52:48.299Z,50.17
2018-10-05T04:55:16.823Z,50.17
2018-10-05T04:57:45.136Z,46.80
2018-10-05T05:00:13.459Z,45.28
2018-10-05T05:02:41.759Z,67.77
2018-10-05T05:05:10.067Z,61.13
2018-10-05T05:07:38.359Z,63.73
2018-10-05T05:10:06.679Z,43.45
2018-10-05T05:12:34.976Z,44.03
2018-10-05T05:15:03.275Z,41.87
2018-10-05T05:17:31.579Z,53.57
2018-10-05T05:19:59.871Z,47.47
2018-10-05T05:22:28.186Z,41.97
2018-10-05T05:24:56.484Z,42.27
2018-10-05T05:27:24.809Z,48.40
2018-10-05T05:29:53.122Z,52.03
2018-10-05T05:32:21.411Z,50.07
2018-10-05T05:34:49.731Z,48.50
2018-10-05T05:37:18.026Z,46.30
2018-10-05T05:39:46.331Z,46.07
2018-10-05T05:42:14.631Z,49.37
2018-10-05T05:44:42.944Z,45.88
2018-10-05T05:47:11.238Z,55.80
2018-10-05T05:49:39.552Z,52.70
2018-10-05T05:52:07.859Z,52.53
2018-10-05T05:54:36.214Z,47.15
2018-10-05T05:57:04.467Z,50.30
2018-10-05T05:59:32.775Z,43.43
2018-10-05T06:02:01.086Z,43.23
2018-10-05T06:04:29.399Z,38.00
2018-10-05T06:06:57.694Z,36.50
2018-10-05T06:09:26.004Z,34.63
2018-10-05T06:11:54.336Z,46.65
2018-10-05T06:14:22.614Z,44.23
2018-10-05T06:16:50.920Z,50.12
2018-10-05T06:19:19.234Z,43.75
2018-10-05T06:21:47.690Z,49.50
2018-10-05T06:24:15.840Z,42.83
2018-10-05T06:26:44.150Z,39.30
2018-10-05T06:29:12.451Z,46.60
2018-10-05T06:31:40.754Z,46.87
2018-10-05T06:34:09.055Z,46.87
2018-10-05T06:36:37.373Z,40.67
2018-10-05T06:39:05.697Z,43.67
2018-10-05T06:41:33.956Z,41.23
2018-10-05T06:44:02.261Z,42.20
2018-10-05T06:46:30.554Z,43.93
2018-10-05T06:48:58.852Z,47.87
2018-10-05T06:51:27.151Z,37.30
2018-10-05T06:53:55.463Z,45.53
2018-10-05T06:56:23.769Z,48.13
2018-10-05T06:58:52.188Z,46.63
2018-10-05T07:01:20.502Z,59.83
2018-10-05T07:03:48.790Z,40.43
2018-10-05T07:06:17.087Z,49.90
2018-10-05T07:08:45.495Z,45.50
2018-10-05T07:11:13.761Z,48.03
2018-10-05T07:13:42.066Z,39.63
2018-10-05T07:16:10.366Z,51.97
2018-10-05T07:18:38.660Z,44.53
2018-10-05T07:21:06.987Z,46.17
2018-10-05T07:23:35.263Z,51.60
2018-10-05T07:26:03.571Z,50.37
2018-10-05T07:28:32.063Z,52.23
2018-10-05T07:31:00.172Z,66.93
2018-10-05T07:33:28.480Z,68.17
2018-10-05T07:35:56.776Z,54.27
2018-10-05T07:38:25.087Z,51.43
2018-10-05T07:40:53.383Z,54.70
2018-10-05T07:43:21.703Z,53.33
2018-10-05T07:45:50.007Z,56.47
2018-10-05T07:48:18.306Z,51.43
2018-10-05T07:50:46.619Z,49.07
2018-10-05T07:53:14.923Z,48.47
2018-10-05T07:55:43.231Z,49.87
2018-10-05T07:58:11.531Z,43.27
2018-10-05T08:00:39.847Z,42.50
2018-10-05T08:03:08.151Z,46.07
2018-10-05T08:05:36.487Z,47.80
2018-10-05T08:08:04.787Z,58.80
2018-10-05T08:10:33.088Z,49.80
2018-10-05T08:13:01.398Z,95.10
2018-10-05T08:15:29.695Z,49.97
2018-10-05T08:17:58.075Z,44.60
2018-10-05T08:20:26.359Z,56.50
2018-10-05T08:22:54.698Z,50.13
2018-10-05T08:25:23.043Z,43.20
2018-10-05T08:27:51.352Z,50.63
2018-10-05T08:30:19.660Z,55.67
2018-10-05T08:32:47.935Z,50.60
2018-10-05T08:35:16.231Z,46.17
2018-10-05T08:37:44.539Z,46.63
2018-10-05T08:45:02.371Z,53.07
2018-10-05T08:47:30.697Z,47.50
2018-10-05T08:49:59.115Z,47.10
2018-10-05T08:52:27.802Z,53.97
2018-10-05T08:54:56.285Z,58.47
2018-10-05T08:57:24.624Z,53.63
2018-10-05T08:59:53.005Z,47.57
2018-10-05T09:02:21.464Z,51.97
2018-10-05T09:04:50.891Z,50.80
2018-10-05T09:07:19.285Z,56.10
2018-10-05T09:09:47.640Z,63.03
2018-10-05T09:12:17.162Z,53.63
2018-10-05T09:14:47.917Z,71.97
2018-10-05T09:17:16.395Z,53.23
2018-10-05T09:19:44.816Z,64.97
2018-10-05T09:22:14.203Z,56.20
2018-10-05T09:24:42.683Z,60.13
2018-10-05T09:27:11.278Z,69.10
2018-10-05T09:29:40.897Z,53.30
2018-10-05T09:32:09.389Z,62.03
2018-10-05T09:34:38.776Z,53.53
2018-10-05T09:37:08.046Z,59.10
2018-10-05T09:39:37.477Z,51.57
2018-10-05T09:42:06.818Z,43.13
2018-10-05T09:44:35.214Z,54.73
2018-10-05T09:47:03.660Z,54.33
2018-10-05T09:49:32.146Z,48.17
2018-10-05T09:52:02.530Z,54.63
2018-10-05T09:54:30.956Z,59.17
2018-10-05T09:56:59.407Z,51.67
2018-10-05T09:59:27.884Z,47.30
2018-10-05T10:01:56.293Z,45.70
2018-10-05T10:04:24.796Z,48.97
2018-10-05T10:06:55.183Z,47.93
2018-10-05T10:09:24.544Z,50.13
2018-10-05T10:11:55.056Z,46.47
2018-10-05T10:14:23.562Z,44.87
2018-10-05T10:16:55.708Z,49.03
2018-10-05T10:19:24.156Z,47.93
2018-10-05T10:24:45.079Z,43.73
2018-10-05T10:27:13.388Z,49.20
2018-10-05T10:29:41.671Z,41.73
2018-10-05T10:32:09.959Z,45.90
2018-10-05T10:34:38.346Z,46.00
2018-10-05T10:37:06.583Z,47.40
2018-10-05T10:39:34.888Z,47.17
2018-10-05T10:42:03.181Z,49.67
2018-10-05T10:44:31.476Z,46.30
2018-10-05T10:46:59.775Z,55.30
2018-10-05T10:49:28.070Z,54.10
2018-10-05T10:51:56.376Z,45.27
2018-10-05T10:54:24.670Z,33.20
2018-10-05T10:56:52.964Z,36.67
2018-10-05T10:59:21.270Z,45.43
2018-10-05T11:01:49.555Z,43.50
2018-10-05T11:04:17.886Z,40.87
2018-10-05T11:06:46.171Z,33.67
2018-10-05T11:09:14.472Z,52.33
2018-10-05T11:11:42.783Z,37.03
2018-10-05T11:14:11.067Z,40.17
2018-10-05T11:16:39.372Z,37.47
2018-10-05T11:19:07.662Z,35.97
2018-10-05T11:21:35.959Z,39.80
2018-10-05T11:24:04.259Z,41.63
2018-10-05T11:26:32.547Z,37.07
2018-10-05T11:29:00.835Z,35.30
2018-10-05T11:31:29.139Z,35.60
2018-10-05T11:33:57.431Z,34.77
2018-10-05T11:36:25.743Z,45.47
2018-10-05T11:38:54.035Z,36.70
2018-10-05T11:41:22.347Z,46.67
2018-10-05T11:43:50.672Z,40.20
2018-10-05T11:46:19.004Z,45.13
2018-10-05T11:48:47.263Z,38.13
2018-10-05T11:51:15.571Z,38.27
2018-10-05T11:53:43.887Z,38.17
2018-10-05T11:56:12.183Z,32.40
2018-10-05T11:58:40.507Z,35.63
2018-10-05T12:01:08.811Z,34.00
2018-10-05T12:03:37.122Z,31.93
2018-10-05T12:06:05.419Z,30.50
2018-10-05T12:08:33.720Z,33.90
2018-10-05T12:11:02.028Z,37.87
2018-10-05T12:13:30.324Z,29.10
2018-10-05T12:15:58.628Z,34.53
2018-10-05T12:18:26.919Z,36.93
2018-10-05T12:20:55.224Z,31.30
2018-10-05T12:23:23.515Z,36.37
2018-10-05T12:25:51.825Z,31.60
2018-10-05T12:28:20.119Z,29.23
2018-10-05T12:30:48.407Z,31.00
2018-10-05T12:33:16.791Z,36.10
2018-10-05T12:35:45.001Z,35.50
2018-10-05T12:38:13.532Z,37.83
2018-10-05T12:40:41.916Z,26.03
2018-10-05T12:43:10.211Z,38.20
2018-10-05T12:45:38.502Z,35.90
2018-10-05T12:48:06.809Z,36.63
2018-10-05T12:50:35.103Z,22.87
2018-10-05T12:53:03.446Z,35.87
2018-10-05T12:55:31.712Z,23.00
2018-10-05T12:58:00.006Z,48.63
2018-10-05T13:00:28.303Z,23.93
2018-10-05T13:02:56.591Z,28.63
2018-10-05T13:05:24.920Z,28.53
2018-10-05T13:07:53.263Z,31.27
2018-10-05T13:10:21.563Z,34.60
2018-10-05T13:12:49.900Z,23.50
2018-10-05T13:15:18.175Z,20.60
2018-10-05T13:17:46.479Z,24.53
2018-10-05T13:20:14.792Z,59.03
2018-10-05T13:22:43.087Z,18.70
2018-10-05T13:25:11.397Z,22.33
2018-10-05T13:27:39.721Z,26.50
2018-10-05T13:30:08.063Z,25.63
2018-10-05T13:32:36.355Z,26.50
2018-10-05T13:35:04.647Z,23.30
2018-10-05T13:37:32.955Z,29.93
2018-10-05T13:40:01.263Z,106.83
2018-10-05T13:42:29.575Z,56.87
2018-10-05T13:44:57.891Z,31.10
2018-10-05T13:47:26.182Z,43.53
2018-10-05T13:49:54.486Z,27.10
2018-10-05T13:52:22.832Z,22.90
2018-10-05T13:54:51.179Z,19.87
2018-10-05T13:57:19.475Z,24.37
2018-10-05T13:59:47.780Z,16.97
2018-10-05T14:02:16.119Z,20.00
2018-10-05T14:04:44.369Z,83.10
2018-10-05T14:07:12.816Z,20.03
2018-10-05T14:09:40.971Z,30.70
2018-10-05T14:12:09.266Z,44.30
2018-10-05T14:14:37.571Z,40.57
2018-10-05T14:17:05.859Z,14.87
2018-10-05T14:19:34.184Z,18.20
2018-10-05T14:22:02.470Z,21.27
2018-10-05T14:24:30.759Z,23.60
2018-10-05T14:26:59.064Z,17.43
2018-10-05T14:29:27.351Z,21.83
2018-10-05T14:31:55.663Z,19.83
2018-10-05T14:34:23.955Z,26.43
2018-10-05T14:36:52.263Z,17.37
2018-10-05T14:39:20.568Z,16.03
2018-10-05T14:41:48.941Z,19.70
2018-10-05T14:44:17.169Z,17.37
2018-10-05T14:46:45.467Z,13.17
2018-10-05T14:49:13.755Z,12.50
2018-10-05T14:51:42.080Z,17.73
2018-10-05T14:54:10.371Z,21.40
2018-10-05T14:56:38.673Z,14.03
2018-10-05T14:59:06.955Z,10.97
2018-10-05T15:01:35.260Z,11.07
2018-10-05T15:04:03.547Z,14.47
2018-10-05T15:06:31.841Z,25.43
2018-10-05T15:09:00.143Z,18.27
2018-10-05T15:11:28.426Z,13.80
2018-10-05T15:13:56.751Z,18.20
2018-10-05T15:16:25.183Z,19.77
2018-10-05T15:18:53.436Z,9.60
2018-10-05T15:21:21.772Z,17.37
2018-10-05T15:23:50.022Z,14.23
2018-10-05T15:26:18.323Z,31.63
2018-10-05T15:28:46.619Z,11.10
2018-10-05T15:31:14.926Z,10.83
2018-10-05T15:33:43.217Z,18.80
2018-10-05T15:36:11.507Z,16.57
2018-10-05T15:38:39.842Z,19.17
2018-10-05T15:41:08.099Z,12.43
2018-10-05T15:43:36.397Z,15.23
2018-10-05T15:46:04.687Z,27.40
2018-10-05T15:48:32.988Z,16.93
2018-10-05T15:51:01.280Z,12.23
2018-10-05T15:53:29.575Z,20.80
2018-10-05T15:55:57.927Z,15.57
2018-10-05T15:58:26.231Z,14.67
2018-10-05T16:00:54.519Z,18.77
2018-10-05T16:03:22.811Z,16.27
2018-10-05T16:05:51.140Z,11.30
2018-10-05T16:08:19.402Z,29.20
2018-10-05T16:10:47.699Z,16.50
2018-10-05T16:13:15.987Z,12.97
2018-10-05T16:15:44.280Z,19.60
2018-10-05T16:18:12.596Z,15.23
2018-10-05T16:20:40.863Z,12.23
2018-10-05T16:23:09.159Z,13.90
2018-10-05T16:25:37.451Z,20.00
2018-10-05T16:28:05.734Z,19.10
2018-10-05T16:30:34.035Z,16.00
2018-10-05T16:33:02.319Z,14.53
2018-10-05T16:35:30.618Z,13.03
2018-10-05T16:37:58.911Z,14.47
2018-10-05T16:40:27.194Z,17.87
2018-10-05T16:42:55.477Z,12.30
2018-10-05T16:45:23.783Z,16.60
2018-10-05T16:47:52.058Z,12.00
2018-10-05T16:50:20.347Z,13.83
2018-10-05T16:52:48.630Z,14.07
2018-10-05T16:55:16.911Z,19.30
2018-10-05T16:57:45.208Z,15.40
2018-10-05T17:00:13.479Z,31.33
2018-10-05T17:02:41.775Z,27.03
2018-10-05T17:05:10.051Z,15.47
2018-10-05T17:07:38.338Z,16.33
2018-10-05T17:10:06.614Z,15.80
2018-10-05T17:12:34.895Z,15.93
2018-10-05T17:15:03.187Z,13.83
2018-10-05T17:17:31.463Z,14.30
2018-10-05T17:19:59.752Z,12.93
2018-10-05T17:22:28.035Z,15.07
2018-10-05T17:24:56.327Z,15.03
2018-10-05T17:27:24.611Z,14.37
2018-10-05T17:29:52.909Z,26.17
2018-10-05T17:32:21.195Z,17.33
2018-10-05T17:34:49.498Z,20.27
2018-10-05T17:37:17.829Z,20.33
2018-10-05T17:39:46.119Z,20.70
2018-10-05T17:42:14.416Z,21.07
2018-10-05T17:44:42.710Z,20.63
2018-10-05T17:47:10.991Z,21.53
2018-10-05T17:49:39.335Z,31.17
2018-10-05T17:52:07.625Z,20.90
2018-10-05T17:54:35.914Z,34.73
2018-10-05T17:57:04.216Z,35.77
2018-10-05T17:59:32.524Z,25.80
2018-10-05T18:02:00.862Z,23.57
2018-10-05T18:04:29.108Z,24.23
2018-10-05T18:06:57.452Z,22.10
2018-10-05T18:09:25.747Z,26.47
2018-10-05T18:11:54.036Z,27.90
2018-10-05T18:14:22.401Z,21.70
2018-10-05T18:16:50.676Z,22.67
2018-10-05T18:19:18.967Z,25.47
2018-10-05T18:21:47.266Z,18.97
2018-10-05T18:24:15.558Z,17.33
2018-10-05T18:26:43.863Z,23.83
2018-10-05T18:29:12.174Z,25.87
2018-10-05T18:31:40.471Z,25.17
2018-10-05T18:34:08.927Z,25.30
2018-10-05T18:36:37.078Z,24.30
2018-10-05T18:39:05.387Z,25.90
2018-10-05T18:41:33.679Z,30.20
2018-10-05T18:44:02.000Z,32.43
2018-10-05T18:46:30.298Z,28.70
2018-10-05T18:48:58.596Z,31.00
2018-10-05T18:51:26.907Z,32.03
2018-10-05T18:53:55.203Z,24.33
2018-10-05T18:59:34.827Z,30.63
2018-10-05T19:02:03.063Z,33.50
2018-10-05T19:04:32.611Z,33.73
2018-10-05T19:07:00.944Z,36.33
2018-10-05T19:09:29.219Z,28.63
2018-10-05T19:11:57.519Z,45.83
2018-10-05T19:14:25.832Z,62.97
2018-10-05T19:16:54.129Z,57.47
2018-10-05T19:19:22.436Z,68.80
2018-10-05T19:21:50.727Z,66.50
2018-10-05T19:24:19.031Z,62.80
2018-10-05T19:26:47.339Z,45.57
2018-10-05T19:29:15.690Z,42.07
2018-10-05T19:31:43.988Z,39.57
2018-10-05T19:34:12.411Z,41.30
2018-10-05T19:36:40.782Z,32.23
2018-10-05T19:39:09.015Z,32.53
2018-10-05T19:41:37.326Z,36.10
2018-10-05T19:44:05.620Z,24.73
2018-10-05T19:46:33.961Z,29.17
2018-10-05T19:49:02.267Z,35.40
2018-10-05T19:51:30.568Z,30.33
2018-10-05T19:53:58.951Z,28.10
2018-10-05T19:56:27.166Z,33.40
2018-10-05T19:58:55.474Z,27.73
2018-10-05T20:01:23.774Z,25.93
2018-10-05T20:03:52.063Z,36.80
2018-10-05T20:06:20.376Z,47.17
2018-10-05T20:08:48.668Z,49.23
2018-10-05T20:11:16.975Z,52.87
2018-10-05T20:13:45.275Z,62.53
2018-10-05T20:16:13.601Z,33.33
2018-10-05T20:18:41.900Z,29.37
2018-10-05T20:21:10.199Z,32.47
2018-10-05T20:23:38.512Z,39.50
2018-10-05T20:26:06.802Z,34.77
2018-10-05T20:28:35.111Z,36.90
2018-10-05T20:31:03.407Z,39.23
2018-10-05T20:33:31.723Z,39.73
2018-10-05T20:36:00.117Z,27.40
2018-10-05T20:38:28.451Z,36.57
2018-10-05T20:40:56.615Z,45.33
2018-10-05T20:43:24.921Z,57.53
2018-10-05T20:45:53.223Z,36.27
2018-10-05T20:48:21.524Z,38.47
2018-10-05T20:50:49.832Z,33.00
2018-10-05T20:53:18.132Z,48.33
2018-10-05T20:55:46.457Z,38.83
2018-10-05T20:58:14.783Z,43.10
2018-10-05T21:00:43.087Z,33.57
2018-10-05T21:03:11.387Z,41.77
2018-10-05T21:05:39.690Z,45.97
2018-10-05T21:08:08.003Z,46.77
2018-10-05T21:10:36.300Z,41.00
2018-10-05T21:13:04.595Z,39.37
2018-10-05T21:15:32.903Z,40.47
2018-10-05T21:18:01.195Z,56.80
2018-10-05T21:20:29.509Z,44.83
2018-10-05T21:22:57.803Z,41.43
2018-10-05T21:25:26.099Z,47.67
2018-10-05T21:27:54.414Z,45.40
2018-10-05T21:30:22.719Z,37.27
2018-10-05T21:32:51.064Z,34.40
2018-10-05T21:35:19.316Z,37.93
2018-10-05T21:37:48.085Z,42.13
2018-10-05T21:40:16.392Z,41.07
2018-10-05T21:42:44.687Z,43.83
2018-10-05T21:45:12.995Z,42.63
2018-10-05T21:47:41.312Z,40.20
2018-10-05T21:50:09.578Z,39.73
2018-10-05T21:52:37.939Z,37.37
2018-10-05T21:55:06.246Z,47.23
2018-10-05T21:57:34.496Z,39.30
2018-10-05T22:00:02.792Z,29.73
2018-10-05T22:02:31.083Z,55.80
2018-10-05T22:04:59.391Z,34.30
2018-10-05T22:07:27.695Z,37.93
2018-10-05T22:09:56.003Z,41.00
2018-10-05T22:12:24.294Z,44.23
2018-10-05T22:14:52.583Z,44.23
2018-10-05T22:17:20.895Z,41.50
2018-10-05T22:19:49.254Z,45.73
2018-10-05T22:22:17.491Z,49.53
2018-10-05T22:24:45.791Z,44.17
2018-10-05T22:27:14.092Z,38.70
2018-10-05T22:29:42.395Z,43.43
2018-10-05T22:32:10.687Z,36.87
2018-10-05T22:34:38.999Z,39.00
2018-10-05T22:37:07.291Z,39.03
2018-10-05T22:39:35.583Z,42.00
2018-10-05T22:42:03.887Z,36.03
2018-10-05T22:44:32.203Z,35.93
2018-10-05T22:47:00.499Z,35.50
2018-10-05T22:49:28.791Z,38.60
2018-10-05T22:51:57.103Z,37.63
2018-10-05T22:54:25.391Z,41.13
2018-10-05T22:56:53.683Z,33.83
2018-10-05T22:59:21.987Z,41.40
2018-10-05T23:01:50.279Z,38.90
2018-10-05T23:04:18.579Z,35.73
2018-10-05T23:06:46.875Z,39.37
2018-10-05T23:09:15.170Z,36.57
2018-10-05T23:11:43.476Z,43.87
2018-10-05T23:14:11.774Z,39.00
2018-10-05T23:16:40.067Z,35.20
2018-10-05T23:19:08.372Z,41.63
2018-10-05T23:21:36.676Z,33.57
2018-10-05T23:24:04.968Z,35.07
2018-10-05T23:26:33.274Z,42.13
2018-10-05T23:29:01.575Z,37.30
2018-10-05T23:31:29.871Z,33.63
2018-10-05T23:33:58.171Z,37.57
2018-10-05T23:36:26.474Z,47.13
2018-10-05T23:38:54.788Z,40.10
2018-10-05T23:41:23.075Z,37.03
2018-10-05T23:43:51.371Z,38.27
2018-10-05T23:46:19.663Z,36.87
2018-10-05T23:48:48.096Z,40.83
2018-10-05T23:51:16.399Z,41.70
2018-10-05T23:53:44.726Z,45.17
2018-10-05T23:56:13.036Z,40.60
2018-10-05T23:58:41.344Z,35.90
